createdAt,value
2023-04-27T00:02:17.478Z,17.80
2023-04-27T00:04:45.159Z,18.58
2023-04-27T00:07:12.584Z,16.38
2023-04-27T00:09:39.753Z,18.05
2023-04-27T00:12:07.433Z,14.77
2023-04-27T00:14:34.887Z,21.70
2023-04-27T00:17:02.202Z,19.10
2023-04-27T00:19:30.837Z,20.52
2023-04-27T00:22:00.591Z,20.63
2023-04-27T00:24:27.864Z,18.10
2023-04-27T00:26:55.429Z,17.50
2023-04-27T00:29:22.671Z,20.17
2023-04-27T00:31:49.885Z,22.75
2023-04-27T00:34:17.553Z,25.52
2023-04-27T00:36:44.812Z,22.35
2023-04-27T00:39:12.458Z,22.00
2023-04-27T00:41:40.051Z,14.63
2023-04-27T00:44:07.303Z,19.33
2023-04-27T00:46:35.330Z,20.13
2023-04-27T00:49:03.139Z,15.18
2023-04-27T00:51:31.625Z,22.80
2023-04-27T00:54:00.320Z,18.45
2023-04-27T00:56:27.947Z,17.63
2023-04-27T00:58:55.157Z,19.60
2023-04-27T01:01:22.603Z,16.23
2023-04-27T01:03:50.086Z,17.63
2023-04-27T01:06:17.535Z,16.45
2023-04-27T01:08:44.882Z,16.92
2023-04-27T01:11:11.884Z,18.10
2023-04-27T01:13:39.195Z,21.83
2023-04-27T01:16:06.769Z,15.80
2023-04-27T01:18:34.021Z,19.95
2023-04-27T01:21:01.637Z,18.08
2023-04-27T01:23:28.934Z,16.65
2023-04-27T01:25:56.052Z,17.95
2023-04-27T01:28:23.498Z,18.90
2023-04-27T01:30:50.718Z,17.20
2023-04-27T01:33:18.399Z,18.05
2023-04-27T01:35:46.424Z,20.00
2023-04-27T01:38:13.829Z,21.50
2023-04-27T01:40:41.178Z,21.50
2023-04-27T01:43:08.656Z,15.00
2023-04-27T01:45:35.752Z,18.02
2023-04-27T01:48:03.844Z,22.65
2023-04-27T01:50:31.253Z,17.42
2023-04-27T01:52:58.650Z,14.80
2023-04-27T01:55:26.076Z,14.10
2023-04-27T01:57:53.577Z,13.27
2023-04-27T02:00:21.091Z,18.58
2023-04-27T02:02:51.533Z,14.82
2023-04-27T02:05:18.904Z,17.25
2023-04-27T02:07:46.396Z,16.48
2023-04-27T02:10:13.644Z,13.02
2023-04-27T02:12:40.799Z,13.27
2023-04-27T02:15:08.876Z,17.48
2023-04-27T02:17:36.277Z,18.83
2023-04-27T02:20:03.486Z,19.27
2023-04-27T02:22:30.707Z,16.98
2023-04-27T02:24:57.834Z,16.48
2023-04-27T02:27:25.185Z,18.20
2023-04-27T02:29:52.868Z,18.25
2023-04-27T02:32:20.548Z,17.45
2023-04-27T02:34:48.218Z,18.08
2023-04-27T02:37:15.312Z,17.42
2023-04-27T02:39:43.035Z,16.30
2023-04-27T02:42:10.210Z,15.05
2023-04-27T02:44:37.560Z,15.73
2023-04-27T02:47:04.926Z,13.13
2023-04-27T02:49:32.195Z,20.27
2023-04-27T02:51:59.486Z,15.70
2023-04-27T02:54:27.149Z,16.77
2023-04-27T02:56:54.398Z,16.48
2023-04-27T02:59:21.552Z,17.63
2023-04-27T03:01:49.425Z,14.80
2023-04-27T03:04:18.143Z,16.52
2023-04-27T03:06:45.883Z,17.17
2023-04-27T03:09:13.406Z,12.10
2023-04-27T03:11:40.606Z,16.60
2023-04-27T03:14:07.955Z,18.95
2023-04-27T03:16:35.876Z,17.33
2023-04-27T03:19:04.164Z,16.85
2023-04-27T03:21:32.136Z,16.58
2023-04-27T03:23:59.397Z,15.07
2023-04-27T03:26:27.031Z,15.10
2023-04-27T03:28:54.282Z,15.55
2023-04-27T03:31:21.906Z,16.10
2023-04-27T03:33:49.203Z,14.93
2023-04-27T03:36:16.547Z,16.92
2023-04-27T03:38:46.119Z,14.00
2023-04-27T03:41:13.486Z,15.10
2023-04-27T03:43:40.732Z,13.43
2023-04-27T03:46:07.966Z,15.98
2023-04-27T03:48:35.146Z,15.48
2023-04-27T03:51:02.526Z,16.05
2023-04-27T03:53:29.810Z,15.82
2023-04-27T03:55:57.022Z,16.10
2023-04-27T03:58:24.165Z,18.25
2023-04-27T04:00:51.369Z,16.95
2023-04-27T04:03:19.089Z,18.10
2023-04-27T04:05:47.413Z,15.60
2023-04-27T04:08:15.009Z,16.88
2023-04-27T04:10:42.471Z,17.00
2023-04-27T04:13:09.794Z,21.63
2023-04-27T04:15:37.286Z,15.80
2023-04-27T04:18:04.829Z,17.83
2023-04-27T04:20:32.096Z,15.60
2023-04-27T04:22:59.408Z,14.70
2023-04-27T04:25:26.964Z,17.08
2023-04-27T04:27:54.236Z,22.30
2023-04-27T04:30:23.126Z,20.70
2023-04-27T04:32:50.581Z,16.65
2023-04-27T04:35:19.899Z,15.73
2023-04-27T04:37:47.553Z,17.42
2023-04-27T04:40:14.673Z,21.20
2023-04-27T04:42:41.929Z,13.88
2023-04-27T04:45:10.618Z,14.10
2023-04-27T04:47:38.021Z,17.10
2023-04-27T04:50:06.040Z,18.98
2023-04-27T04:52:33.423Z,27.08
2023-04-27T04:55:00.872Z,18.65
2023-04-27T04:57:28.531Z,19.25
2023-04-27T04:59:55.815Z,17.98
2023-04-27T05:02:23.167Z,24.15
2023-04-27T05:04:52.486Z,19.52
2023-04-27T05:07:24.131Z,29.33
2023-04-27T05:09:52.559Z,18.10
2023-04-27T05:12:22.891Z,16.35
2023-04-27T05:14:51.165Z,20.35
2023-04-27T05:17:18.682Z,16.63
2023-04-27T05:19:46.243Z,17.13
2023-04-27T05:22:13.441Z,14.88
2023-04-27T05:24:41.275Z,14.20
2023-04-27T05:27:08.734Z,13.70
2023-04-27T05:29:35.788Z,13.73
2023-04-27T05:32:09.383Z,20.52
2023-04-27T05:34:37.101Z,21.13
2023-04-27T05:37:04.291Z,20.20
2023-04-27T05:39:31.559Z,18.17
2023-04-27T05:41:59.140Z,15.88
2023-04-27T05:44:29.596Z,15.85
2023-04-27T05:46:57.341Z,20.58
2023-04-27T05:49:24.646Z,18.05
2023-04-27T05:51:52.363Z,17.50
2023-04-27T05:54:19.465Z,13.98
2023-04-27T05:56:46.520Z,21.35
2023-04-27T05:59:14.117Z,15.35
2023-04-27T06:01:41.701Z,16.83
2023-04-27T06:04:09.155Z,17.90
2023-04-27T06:06:36.677Z,16.60
2023-04-27T06:09:04.406Z,16.20
2023-04-27T06:11:31.696Z,16.10
2023-04-27T06:13:58.839Z,16.27
2023-04-27T06:16:26.292Z,21.65
2023-04-27T06:18:53.729Z,18.50
2023-04-27T06:21:20.937Z,17.17
2023-04-27T06:23:48.596Z,19.63
2023-04-27T06:26:15.967Z,16.85
2023-04-27T06:28:43.215Z,14.85
2023-04-27T06:31:10.806Z,16.60
2023-04-27T06:33:37.826Z,17.23
2023-04-27T06:36:05.339Z,22.92
2023-04-27T06:38:32.707Z,21.42
2023-04-27T06:41:00.077Z,18.45
2023-04-27T06:43:27.528Z,17.50
2023-04-27T06:45:54.589Z,16.05
2023-04-27T06:48:21.997Z,19.00
2023-04-27T06:50:49.461Z,18.45
2023-04-27T06:53:17.535Z,22.35
2023-04-27T06:55:46.862Z,19.75
2023-04-27T06:58:15.878Z,22.35
2023-04-27T07:00:42.990Z,19.30
2023-04-27T07:03:10.724Z,19.60
2023-04-27T07:05:38.369Z,20.00
2023-04-27T07:08:08.510Z,20.98
2023-04-27T07:10:36.514Z,19.90
2023-04-27T07:13:03.567Z,23.55
2023-04-27T07:15:33.640Z,21.90
2023-04-27T07:18:01.031Z,22.92
2023-04-27T07:20:28.192Z,23.38
2023-04-27T07:22:56.179Z,23.45
2023-04-27T07:25:23.394Z,23.00
2023-04-27T07:27:51.007Z,22.63
2023-04-27T07:30:18.318Z,20.42
2023-04-27T07:32:46.032Z,23.65
2023-04-27T07:35:13.921Z,26.48
2023-04-27T07:37:41.925Z,21.20
2023-04-27T07:40:16.996Z,23.70
2023-04-27T07:42:44.933Z,22.80
2023-04-27T07:45:13.222Z,22.58
2023-04-27T07:47:40.622Z,24.65
2023-04-27T07:50:11.370Z,21.35
2023-04-27T07:52:38.365Z,22.38
2023-04-27T07:55:06.116Z,23.58
2023-04-27T07:57:33.146Z,22.70
2023-04-27T08:00:00.443Z,25.83
2023-04-27T08:02:32.245Z,22.98
2023-04-27T08:04:59.749Z,21.73
2023-04-27T08:07:28.103Z,21.65
2023-04-27T08:09:55.619Z,25.73
2023-04-27T08:12:23.021Z,22.55
2023-04-27T08:14:50.188Z,19.98
2023-04-27T08:17:18.685Z,23.15
2023-04-27T08:19:46.107Z,22.08
2023-04-27T08:22:13.190Z,21.15
2023-04-27T08:24:40.691Z,23.55
2023-04-27T08:27:08.369Z,20.77
2023-04-27T08:29:35.563Z,19.08
2023-04-27T08:32:04.459Z,22.08
2023-04-27T08:34:32.212Z,21.05
2023-04-27T08:36:59.340Z,20.20
2023-04-27T08:39:26.802Z,20.70
2023-04-27T08:41:54.106Z,17.48
2023-04-27T08:44:21.734Z,16.70
2023-04-27T08:46:49.620Z,18.10
2023-04-27T08:49:17.517Z,19.88
2023-04-27T08:51:45.356Z,18.42
2023-04-27T08:54:12.588Z,14.57
2023-04-27T08:56:39.930Z,19.65
2023-04-27T08:59:17.833Z,17.45
2023-04-27T09:01:47.323Z,15.18
2023-04-27T09:04:15.360Z,18.83
2023-04-27T09:06:42.704Z,17.13
2023-04-27T09:09:12.441Z,19.02
2023-04-27T09:11:40.375Z,13.70
2023-04-27T09:14:20.486Z,16.67
2023-04-27T09:16:58.955Z,10.07
2023-04-27T09:19:27.846Z,12.70
2023-04-27T09:22:05.718Z,11.57
2023-04-27T09:24:33.540Z,12.45
2023-04-27T09:27:01.871Z,13.05
2023-04-27T09:29:39.328Z,13.45
2023-04-27T09:32:17.442Z,14.98
2023-04-27T09:34:45.082Z,18.42
2023-04-27T09:37:13.087Z,14.70
2023-04-27T09:39:41.980Z,12.77
2023-04-27T09:42:10.482Z,14.82
2023-04-27T09:44:38.257Z,10.98
2023-04-27T09:47:06.823Z,15.27
2023-04-27T09:49:37.222Z,15.70
2023-04-27T09:52:04.626Z,13.70
2023-04-27T09:54:34.960Z,14.30
2023-04-27T09:57:11.276Z,13.98
2023-04-27T09:59:56.080Z,13.30
2023-04-27T10:02:25.824Z,15.45
2023-04-27T10:05:15.558Z,13.95
2023-04-27T10:07:43.523Z,12.57
2023-04-27T10:10:18.887Z,13.88
2023-04-27T10:13:04.951Z,12.57
2023-04-27T10:15:39.677Z,12.23
2023-04-27T10:18:08.083Z,16.00
2023-04-27T10:20:38.173Z,14.98
2023-04-27T10:23:05.539Z,13.85
2023-04-27T10:25:40.944Z,14.40
2023-04-27T10:28:10.542Z,13.90
2023-04-27T10:30:39.829Z,14.20
2023-04-27T10:33:12.056Z,15.20
2023-04-27T10:35:45.087Z,18.58
2023-04-27T10:38:17.873Z,15.27
2023-04-27T10:41:05.867Z,13.05
2023-04-27T10:43:35.742Z,10.88
2023-04-27T10:46:14.233Z,11.35
2023-04-27T10:48:43.768Z,12.55
2023-04-27T10:51:15.789Z,12.45
2023-04-27T10:53:42.997Z,14.38
2023-04-27T10:56:13.314Z,12.68
2023-04-27T10:58:49.207Z,12.68
2023-04-27T11:01:27.517Z,12.40
2023-04-27T11:03:59.236Z,17.27
2023-04-27T11:06:28.530Z,11.63
2023-04-27T11:08:56.148Z,15.65
2023-04-27T11:11:24.504Z,15.77
2023-04-27T11:13:55.938Z,13.57
2023-04-27T11:16:23.781Z,12.45
2023-04-27T11:18:50.824Z,11.60
2023-04-27T11:21:21.694Z,12.80
2023-04-27T11:23:48.978Z,16.50
2023-04-27T11:26:22.050Z,11.93
2023-04-27T11:29:06.147Z,12.38
2023-04-27T11:31:49.710Z,12.65
2023-04-27T11:34:24.933Z,11.55
2023-04-27T11:37:17.370Z,11.75
2023-04-27T11:39:46.721Z,10.82
2023-04-27T11:42:21.244Z,14.95
2023-04-27T11:44:56.170Z,11.77
2023-04-27T11:47:25.685Z,10.90
2023-04-27T11:49:55.723Z,11.38
2023-04-27T11:52:28.184Z,10.77
2023-04-27T11:54:56.825Z,11.52
2023-04-27T11:57:29.810Z,12.50
2023-04-27T12:00:01.779Z,12.40
2023-04-27T12:02:31.545Z,12.95
2023-04-27T12:05:00.036Z,11.55
2023-04-27T12:07:27.330Z,11.75
2023-04-27T12:09:54.676Z,12.13
2023-04-27T12:12:24.443Z,11.48
2023-04-27T12:14:52.217Z,11.63
2023-04-27T12:17:20.223Z,12.10
2023-04-27T12:19:47.116Z,13.57
2023-04-27T12:22:14.923Z,14.77
2023-04-27T12:24:41.857Z,10.60
2023-04-27T12:27:09.080Z,15.50
2023-04-27T12:29:37.265Z,12.55
2023-04-27T12:32:04.411Z,11.23
2023-04-27T12:34:31.599Z,10.80
2023-04-27T12:36:59.418Z,10.85
2023-04-27T12:39:26.864Z,11.55
2023-04-27T12:41:54.506Z,10.93
2023-04-27T12:44:22.130Z,14.57
2023-04-27T12:46:49.895Z,11.07
2023-04-27T12:49:17.663Z,11.55
2023-04-27T12:51:46.804Z,11.80
2023-04-27T12:54:14.378Z,13.68
2023-04-27T12:56:42.148Z,10.35
2023-04-27T12:59:09.271Z,11.30
2023-04-27T13:01:36.987Z,13.93
2023-04-27T13:04:06.335Z,15.05
2023-04-27T13:06:33.881Z,13.60
2023-04-27T13:09:01.182Z,16.42
2023-04-27T13:11:28.405Z,14.65
2023-04-27T13:13:55.705Z,10.35
2023-04-27T13:16:25.829Z,12.27
2023-04-27T13:18:55.658Z,12.98
2023-04-27T13:21:23.541Z,16.40
2023-04-27T13:23:51.827Z,12.82
2023-04-27T13:26:19.308Z,13.60
2023-04-27T13:28:46.721Z,8.50
2023-04-27T13:31:13.754Z,12.98
2023-04-27T13:33:43.285Z,10.23
2023-04-27T13:36:11.470Z,12.18
2023-04-27T13:38:38.611Z,11.18
2023-04-27T13:41:06.530Z,8.88
2023-04-27T13:43:33.700Z,13.18
2023-04-27T13:46:02.776Z,10.57
2023-04-27T13:48:31.239Z,13.38
2023-04-27T13:50:58.836Z,11.77
2023-04-27T13:53:26.694Z,11.88
2023-04-27T13:55:55.522Z,11.02
2023-04-27T13:58:24.462Z,11.13
2023-04-27T14:00:53.717Z,14.68
2023-04-27T14:03:21.717Z,11.27
2023-04-27T14:05:51.192Z,15.20
2023-04-27T14:08:18.756Z,11.05
2023-04-27T14:10:46.462Z,10.18
2023-04-27T14:13:13.936Z,12.07
2023-04-27T14:15:41.784Z,14.70
2023-04-27T14:18:09.464Z,13.77
2023-04-27T14:20:37.911Z,14.38
2023-04-27T14:23:06.474Z,11.82
2023-04-27T14:25:34.951Z,12.43
2023-04-27T14:28:04.010Z,12.70
2023-04-27T14:30:35.577Z,11.98
2023-04-27T14:33:03.118Z,10.32
2023-04-27T14:35:30.513Z,10.70
2023-04-27T14:38:02.501Z,10.90
2023-04-27T14:40:31.057Z,13.00
2023-04-27T14:43:01.392Z,11.13
2023-04-27T14:45:36.729Z,9.88
2023-04-27T14:48:11.095Z,10.10
2023-04-27T14:50:38.300Z,11.32
2023-04-27T14:53:08.492Z,13.00
2023-04-27T14:55:35.788Z,14.90
2023-04-27T14:58:04.029Z,10.05
2023-04-27T15:00:31.726Z,11.15
2023-04-27T15:02:59.203Z,10.98
2023-04-27T15:05:26.400Z,8.88
2023-04-27T15:07:53.512Z,14.48
2023-04-27T15:10:20.976Z,9.48
2023-04-27T15:12:48.629Z,9.30
2023-04-27T15:15:16.821Z,12.15
2023-04-27T15:17:44.071Z,14.32
2023-04-27T15:20:14.118Z,12.13
2023-04-27T15:22:41.447Z,10.57
2023-04-27T15:25:09.222Z,11.20
2023-04-27T15:27:36.641Z,11.52
2023-04-27T15:30:05.466Z,11.15
2023-04-27T15:32:33.522Z,13.73
2023-04-27T15:35:01.428Z,10.25
2023-04-27T15:37:29.302Z,14.07
2023-04-27T15:39:56.948Z,10.07
2023-04-27T15:42:24.643Z,11.45
2023-04-27T15:44:52.508Z,15.32
2023-04-27T15:47:19.923Z,10.65
2023-04-27T15:49:57.000Z,12.05
2023-04-27T15:52:25.274Z,15.15
2023-04-27T15:54:52.482Z,11.02
2023-04-27T15:57:19.481Z,12.68
2023-04-27T15:59:46.635Z,10.45
2023-04-27T16:02:14.279Z,12.45
2023-04-27T16:04:41.403Z,11.02
2023-04-27T16:07:08.712Z,10.70
2023-04-27T16:09:35.936Z,11.00
2023-04-27T16:12:04.065Z,13.75
2023-04-27T16:14:31.607Z,12.50
2023-04-27T16:17:02.732Z,10.55
2023-04-27T16:19:30.117Z,12.20
2023-04-27T16:21:57.613Z,15.98
2023-04-27T16:24:26.396Z,13.15
2023-04-27T16:26:54.057Z,12.82
2023-04-27T16:29:21.510Z,11.57
2023-04-27T16:31:53.328Z,11.93
2023-04-27T16:34:20.525Z,15.15
2023-04-27T16:36:48.754Z,12.18
2023-04-27T16:39:19.026Z,14.07
2023-04-27T16:41:46.250Z,15.50
2023-04-27T16:44:14.215Z,13.20
2023-04-27T16:46:41.758Z,21.52
2023-04-27T16:49:18.866Z,15.85
2023-04-27T16:51:49.981Z,10.82
2023-04-27T16:54:29.994Z,14.20
2023-04-27T16:57:05.218Z,16.33
2023-04-27T16:59:44.754Z,12.63
2023-04-27T17:02:23.858Z,13.35
2023-04-27T17:04:51.988Z,16.02
2023-04-27T17:07:19.138Z,16.60
2023-04-27T17:09:46.200Z,14.80
2023-04-27T17:12:14.163Z,15.43
2023-04-27T17:14:41.863Z,13.52
2023-04-27T17:17:08.980Z,15.18
2023-04-27T17:19:36.247Z,14.25
2023-04-27T17:22:04.476Z,17.45
2023-04-27T17:24:31.662Z,17.95
2023-04-27T17:26:58.786Z,15.60
2023-04-27T17:29:25.982Z,14.52
2023-04-27T17:31:53.126Z,15.98
2023-04-27T17:34:20.248Z,12.95
2023-04-27T17:36:47.308Z,16.30
2023-04-27T17:39:14.937Z,11.77
2023-04-27T17:41:42.483Z,14.23
2023-04-27T17:44:12.256Z,14.38
2023-04-27T17:46:46.047Z,14.48
2023-04-27T17:49:13.384Z,16.15
2023-04-27T17:51:40.784Z,12.48
2023-04-27T17:54:08.240Z,14.57
2023-04-27T17:56:35.924Z,13.48
2023-04-27T17:59:04.500Z,15.57
2023-04-27T18:01:31.869Z,17.27
2023-04-27T18:04:01.301Z,15.50
2023-04-27T18:06:32.186Z,12.45
2023-04-27T18:08:59.320Z,13.90
2023-04-27T18:11:29.591Z,11.90
2023-04-27T18:13:58.429Z,12.57
2023-04-27T18:16:25.916Z,13.52
2023-04-27T18:18:53.230Z,13.68
2023-04-27T18:21:20.496Z,11.00
2023-04-27T18:23:48.224Z,14.32
2023-04-27T18:26:15.341Z,12.32
2023-04-27T18:28:42.744Z,16.13
2023-04-27T18:31:17.410Z,14.68
2023-04-27T18:33:47.340Z,14.55
2023-04-27T18:36:14.801Z,13.77
2023-04-27T18:38:42.323Z,16.65
2023-04-27T18:41:09.444Z,13.68
2023-04-27T18:43:37.074Z,12.15
2023-04-27T18:46:05.081Z,13.05
2023-04-27T18:48:32.669Z,11.35
2023-04-27T18:50:59.944Z,14.55
2023-04-27T18:53:28.240Z,12.27
2023-04-27T18:55:55.708Z,15.38
2023-04-27T18:58:23.254Z,15.35
2023-04-27T19:00:50.562Z,10.55
2023-04-27T19:03:17.924Z,15.63
2023-04-27T19:05:45.728Z,17.88
2023-04-27T19:08:13.285Z,13.82
2023-04-27T19:10:41.718Z,16.73
2023-04-27T19:13:08.877Z,16.30
2023-04-27T19:15:37.162Z,14.32
2023-04-27T19:18:10.465Z,11.70
2023-04-27T19:20:39.758Z,16.83
2023-04-27T19:23:09.649Z,14.30
2023-04-27T19:25:37.284Z,14.95
2023-04-27T19:28:05.130Z,14.48
2023-04-27T19:30:32.313Z,18.80
2023-04-27T19:32:59.501Z,16.13
2023-04-27T19:35:27.688Z,16.23
2023-04-27T19:37:54.870Z,13.35
2023-04-27T19:40:22.230Z,14.10
2023-04-27T19:42:50.040Z,15.98
2023-04-27T19:45:18.333Z,13.32
2023-04-27T19:47:46.313Z,13.13
2023-04-27T19:50:14.019Z,13.02
2023-04-27T19:52:41.334Z,14.13
2023-04-27T19:55:09.395Z,17.65
2023-04-27T19:57:36.709Z,15.40
2023-04-27T20:00:09.436Z,13.40
2023-04-27T20:02:36.767Z,13.32
2023-04-27T20:05:05.176Z,18.20
2023-04-27T20:07:32.544Z,15.60
2023-04-27T20:09:59.698Z,16.65
2023-04-27T20:12:44.171Z,17.45
2023-04-27T20:15:14.330Z,13.40
2023-04-27T20:17:41.956Z,13.48
2023-04-27T20:20:12.791Z,18.23
2023-04-27T20:22:40.076Z,16.65
2023-04-27T20:25:08.221Z,18.88
2023-04-27T20:27:35.887Z,14.52
2023-04-27T20:30:03.123Z,14.80
2023-04-27T20:32:30.492Z,16.38
2023-04-27T20:34:57.873Z,14.07
2023-04-27T20:37:25.996Z,13.57
2023-04-27T20:39:53.909Z,15.48
2023-04-27T20:42:21.185Z,15.55
2023-04-27T20:44:48.727Z,16.70
2023-04-27T20:47:16.388Z,15.88
2023-04-27T20:49:43.704Z,15.95
2023-04-27T20:52:10.887Z,14.25
2023-04-27T20:54:37.968Z,13.70
2023-04-27T20:57:08.880Z,15.90
2023-04-27T20:59:36.117Z,17.73
2023-04-27T21:02:03.539Z,15.73
2023-04-27T21:04:30.880Z,15.88
2023-04-27T21:06:58.158Z,15.45
2023-04-27T21:09:25.345Z,17.33
2023-04-27T21:11:52.397Z,15.07
2023-04-27T21:14:19.554Z,15.48
2023-04-27T21:16:46.682Z,14.85
2023-04-27T21:19:15.571Z,16.50
2023-04-27T21:21:43.059Z,18.98
2023-04-27T21:24:10.432Z,18.45
2023-04-27T21:26:37.595Z,25.38
2023-04-27T21:29:06.155Z,18.90
2023-04-27T21:31:34.158Z,22.40
2023-04-27T21:34:03.838Z,18.65
2023-04-27T21:36:31.192Z,24.95
2023-04-27T21:38:58.349Z,17.23
2023-04-27T21:41:25.916Z,19.95
2023-04-27T21:43:53.349Z,19.85
2023-04-27T21:46:20.652Z,17.75
2023-04-27T21:48:48.020Z,20.80
2023-04-27T21:51:15.124Z,18.77
2023-04-27T21:53:42.168Z,22.52
2023-04-27T21:56:09.542Z,17.33
2023-04-27T21:58:36.611Z,19.00
2023-04-27T22:01:03.901Z,20.05
2023-04-27T22:03:31.019Z,23.23
2023-04-27T22:05:59.690Z,20.52
2023-04-27T22:08:26.928Z,23.02
2023-04-27T22:10:53.990Z,25.40
2023-04-27T22:13:21.130Z,18.70
2023-04-27T22:15:48.691Z,19.83
2023-04-27T22:18:15.984Z,21.42
2023-04-27T22:20:43.389Z,20.15
2023-04-27T22:23:11.009Z,17.38
2023-04-27T22:25:38.587Z,19.55
2023-04-27T22:28:05.789Z,22.80
2023-04-27T22:30:33.082Z,23.77
2023-04-27T22:33:01.506Z,21.90
2023-04-27T22:35:29.134Z,22.17
2023-04-27T22:37:56.545Z,18.67
2023-04-27T22:40:24.638Z,18.15
2023-04-27T22:42:52.229Z,24.88
2023-04-27T22:45:19.631Z,19.23
2023-04-27T22:47:47.058Z,24.63
2023-04-27T22:50:14.274Z,21.80
2023-04-27T22:52:44.305Z,20.83
2023-04-27T22:55:12.449Z,16.80
2023-04-27T22:57:40.207Z,18.25
2023-04-27T23:00:13.774Z,20.50
2023-04-27T23:02:41.646Z,18.15
2023-04-27T23:05:11.091Z,21.42
2023-04-27T23:07:38.602Z,21.40
2023-04-27T23:10:06.132Z,23.10
2023-04-27T23:12:33.599Z,21.20
2023-04-27T23:15:00.654Z,21.73
2023-04-27T23:17:30.889Z,20.60
2023-04-27T23:19:59.884Z,19.70
2023-04-27T23:22:27.765Z,22.50
2023-04-27T23:24:56.123Z,20.75
2023-04-27T23:27:25.118Z,19.13
2023-04-27T23:29:52.990Z,19.92
2023-04-27T23:32:20.899Z,25.63
2023-04-27T23:34:48.084Z,20.23
2023-04-27T23:37:15.226Z,18.02
2023-04-27T23:39:42.186Z,22.90
2023-04-27T23:42:09.378Z,18.58
2023-04-27T23:44:36.484Z,19.13
2023-04-27T23:47:03.606Z,21.70
2023-04-27T23:49:30.898Z,18.40
2023-04-27T23:51:58.217Z,22.88
2023-04-27T23:54:26.138Z,19.02
2023-04-27T23:56:53.186Z,20.88
2023-04-27T23:59:20.559Z,18.05
